sensor_id;sensor_type;location;lat;lon;timestamp;P1;durP1;ratioP1;P2;durP2;ratioP2
35646;SDS011;28680;45.642;13.756;2022-12-18T00:09:37;10.48;;;5.32;;
35646;SDS011;28680;45.642;13.756;2022-12-18T00:12:03;9.00;;;4.88;;
35646;SDS011;28680;45.642;13.756;2022-12-18T00:14:29;8.00;;;4.43;;
35646;SDS011;28680;45.642;13.756;2022-12-18T00:16:55;8.60;;;5.07;;
35646;SDS011;28680;45.642;13.756;2022-12-18T00:19:23;7.93;;;4.68;;
35646;SDS011;28680;45.642;13.756;2022-12-18T00:21:49;8.25;;;4.80;;
35646;SDS011;28680;45.642;13.756;2022-12-18T00:24:14;7.90;;;4.65;;
35646;SDS011;28680;45.642;13.756;2022-12-18T00:26:40;6.75;;;4.22;;
35646;SDS011;28680;45.642;13.756;2022-12-18T00:29:09;7.03;;;4.57;;
35646;SDS011;28680;45.642;13.756;2022-12-18T00:31:39;8.40;;;5.18;;
35646;SDS011;28680;45.642;13.756;2022-12-18T00:34:05;9.25;;;4.97;;
35646;SDS011;28680;45.642;13.756;2022-12-18T00:36:33;8.65;;;5.22;;
35646;SDS011;28680;45.642;13.756;2022-12-18T00:39:00;7.75;;;4.93;;
35646;SDS011;28680;45.642;13.756;2022-12-18T00:41:28;9.32;;;4.70;;
35646;SDS011;28680;45.642;13.756;2022-12-18T00:44:14;8.50;;;5.35;;
35646;SDS011;28680;45.642;13.756;2022-12-18T00:46:42;8.07;;;4.70;;
35646;SDS011;28680;45.642;13.756;2022-12-18T00:49:09;9.77;;;5.00;;
35646;SDS011;28680;45.642;13.756;2022-12-18T00:51:35;12.38;;;5.45;;
35646;SDS011;28680;45.642;13.756;2022-12-18T00:54:01;10.95;;;5.60;;
35646;SDS011;28680;45.642;13.756;2022-12-18T00:56:26;10.93;;;5.90;;
35646;SDS011;28680;45.642;13.756;2022-12-18T00:58:52;9.68;;;5.72;;
35646;SDS011;28680;45.642;13.756;2022-12-18T01:01:18;11.60;;;5.85;;
35646;SDS011;28680;45.642;13.756;2022-12-18T01:03:44;12.05;;;6.18;;
35646;SDS011;28680;45.642;13.756;2022-12-18T01:06:11;10.93;;;5.63;;
35646;SDS011;28680;45.642;13.756;2022-12-18T01:08:38;10.23;;;5.65;;
35646;SDS011;28680;45.642;13.756;2022-12-18T01:11:08;10.60;;;6.00;;
35646;SDS011;28680;45.642;13.756;2022-12-18T01:13:39;10.85;;;6.03;;
35646;SDS011;28680;45.642;13.756;2022-12-18T01:16:07;9.77;;;5.60;;
35646;SDS011;28680;45.642;13.756;2022-12-18T01:18:34;10.10;;;5.75;;
35646;SDS011;28680;45.642;13.756;2022-12-18T01:21:00;9.90;;;5.70;;
35646;SDS011;28680;45.642;13.756;2022-12-18T01:23:31;11.38;;;6.13;;
35646;SDS011;28680;45.642;13.756;2022-12-18T01:25:57;9.50;;;5.43;;
35646;SDS011;28680;45.642;13.756;2022-12-18T01:28:23;12.35;;;6.97;;
35646;SDS011;28680;45.642;13.756;2022-12-18T01:30:48;10.82;;;6.03;;
35646;SDS011;28680;45.642;13.756;2022-12-18T01:33:14;9.63;;;5.88;;
35646;SDS011;28680;45.642;13.756;2022-12-18T01:35:43;12.75;;;6.72;;
35646;SDS011;28680;45.642;13.756;2022-12-18T01:38:09;9.52;;;5.93;;
35646;SDS011;28680;45.642;13.756;2022-12-18T01:40:35;11.43;;;6.60;;
35646;SDS011;28680;45.642;13.756;2022-12-18T01:43:01;12.13;;;6.13;;
35646;SDS011;28680;45.642;13.756;2022-12-18T01:45:28;10.07;;;5.90;;
35646;SDS011;28680;45.642;13.756;2022-12-18T01:48:03;10.75;;;6.32;;
35646;SDS011;28680;45.642;13.756;2022-12-18T01:50:35;10.32;;;6.20;;
35646;SDS011;28680;45.642;13.756;2022-12-18T01:53:14;12.30;;;6.80;;
35646;SDS011;28680;45.642;13.756;2022-12-18T01:55:43;12.30;;;6.40;;
35646;SDS011;28680;45.642;13.756;2022-12-18T01:58:19;11.15;;;7.00;;
35646;SDS011;28680;45.642;13.756;2022-12-18T02:00:55;10.45;;;6.32;;
35646;SDS011;28680;45.642;13.756;2022-12-18T02:03:21;11.82;;;6.65;;
35646;SDS011;28680;45.642;13.756;2022-12-18T02:05:48;10.32;;;5.93;;
35646;SDS011;28680;45.642;13.756;2022-12-18T02:08:39;9.90;;;5.53;;
35646;SDS011;28680;45.642;13.756;2022-12-18T02:28:34;14.57;;;6.72;;
35646;SDS011;28680;45.642;13.756;2022-12-18T02:31:13;11.88;;;6.72;;
35646;SDS011;28680;45.642;13.756;2022-12-18T02:33:46;11.48;;;6.85;;
35646;SDS011;28680;45.642;13.756;2022-12-18T02:36:14;11.90;;;6.43;;
35646;SDS011;28680;45.642;13.756;2022-12-18T02:38:43;9.98;;;5.68;;
35646;SDS011;28680;45.642;13.756;2022-12-18T02:41:11;12.35;;;6.53;;
35646;SDS011;28680;45.642;13.756;2022-12-18T02:43:38;13.50;;;7.43;;
35646;SDS011;28680;45.642;13.756;2022-12-18T02:48:55;12.80;;;6.53;;
35646;SDS011;28680;45.642;13.756;2022-12-18T02:55:19;10.18;;;5.72;;
35646;SDS011;28680;45.642;13.756;2022-12-18T03:01:13;12.07;;;6.40;;
35646;SDS011;28680;45.642;13.756;2022-12-18T03:04:04;11.10;;;6.38;;
35646;SDS011;28680;45.642;13.756;2022-12-18T03:06:43;11.32;;;6.40;;
35646;SDS011;28680;45.642;13.756;2022-12-18T03:09:15;11.23;;;6.47;;
35646;SDS011;28680;45.642;13.756;2022-12-18T03:11:55;12.60;;;7.40;;
35646;SDS011;28680;45.642;13.756;2022-12-18T03:14:48;12.90;;;6.95;;
35646;SDS011;28680;45.642;13.756;2022-12-18T03:17:40;11.40;;;6.30;;
35646;SDS011;28680;45.642;13.756;2022-12-18T03:20:14;13.45;;;6.82;;
35646;SDS011;28680;45.642;13.756;2022-12-18T03:22:45;12.77;;;6.78;;
35646;SDS011;28680;45.642;13.756;2022-12-18T03:25:19;12.30;;;7.05;;
35646;SDS011;28680;45.642;13.756;2022-12-18T03:27:47;13.57;;;7.40;;
35646;SDS011;28680;45.642;13.756;2022-12-18T03:30:19;12.40;;;6.57;;
35646;SDS011;28680;45.642;13.756;2022-12-18T03:35:39;11.80;;;6.47;;
35646;SDS011;28680;45.642;13.756;2022-12-18T03:38:08;14.70;;;7.50;;
35646;SDS011;28680;45.642;13.756;2022-12-18T03:40:49;12.40;;;6.78;;
35646;SDS011;28680;45.642;13.756;2022-12-18T03:43:33;12.63;;;6.60;;
35646;SDS011;28680;45.642;13.756;2022-12-18T03:46:11;13.23;;;7.35;;
35646;SDS011;28680;45.642;13.756;2022-12-18T03:48:53;15.30;;;7.13;;
35646;SDS011;28680;45.642;13.756;2022-12-18T03:51:33;14.90;;;7.65;;
35646;SDS011;28680;45.642;13.756;2022-12-18T03:54:02;12.18;;;6.93;;
35646;SDS011;28680;45.642;13.756;2022-12-18T03:56:33;13.13;;;7.55;;
35646;SDS011;28680;45.642;13.756;2022-12-18T03:59:05;14.20;;;7.57;;
35646;SDS011;28680;45.642;13.756;2022-12-18T04:01:33;14.70;;;7.82;;
35646;SDS011;28680;45.642;13.756;2022-12-18T04:04:07;16.23;;;8.43;;
35646;SDS011;28680;45.642;13.756;2022-12-18T04:06:35;13.77;;;7.88;;
35646;SDS011;28680;45.642;13.756;2022-12-18T04:09:02;16.20;;;7.88;;
35646;SDS011;28680;45.642;13.756;2022-12-18T04:11:29;14.00;;;7.82;;
35646;SDS011;28680;45.642;13.756;2022-12-18T04:13:56;15.50;;;8.07;;
35646;SDS011;28680;45.642;13.756;2022-12-18T04:16:23;13.90;;;7.35;;
35646;SDS011;28680;45.642;13.756;2022-12-18T04:18:51;15.63;;;8.15;;
35646;SDS011;28680;45.642;13.756;2022-12-18T04:21:18;15.70;;;8.45;;
35646;SDS011;28680;45.642;13.756;2022-12-18T04:23:44;15.43;;;8.18;;
35646;SDS011;28680;45.642;13.756;2022-12-18T04:26:10;14.77;;;7.72;;
35646;SDS011;28680;45.642;13.756;2022-12-18T04:28:36;15.38;;;8.02;;
35646;SDS011;28680;45.642;13.756;2022-12-18T04:31:02;14.43;;;8.02;;
35646;SDS011;28680;45.642;13.756;2022-12-18T04:33:28;15.40;;;8.52;;
35646;SDS011;28680;45.642;13.756;2022-12-18T04:35:54;18.52;;;9.18;;
35646;SDS011;28680;45.642;13.756;2022-12-18T04:38:20;16.38;;;8.48;;
35646;SDS011;28680;45.642;13.756;2022-12-18T04:40:46;13.32;;;8.00;;
35646;SDS011;28680;45.642;13.756;2022-12-18T04:43:12;14.98;;;8.02;;
35646;SDS011;28680;45.642;13.756;2022-12-18T04:45:37;17.00;;;8.98;;
35646;SDS011;28680;45.642;13.756;2022-12-18T04:48:03;15.38;;;8.10;;
35646;SDS011;28680;45.642;13.756;2022-12-18T04:50:30;17.35;;;8.75;;
35646;SDS011;28680;45.642;13.756;2022-12-18T04:52:56;16.40;;;8.80;;
35646;SDS011;28680;45.642;13.756;2022-12-18T04:55:22;16.27;;;8.75;;
35646;SDS011;28680;45.642;13.756;2022-12-18T04:57:48;18.15;;;9.30;;
35646;SDS011;28680;45.642;13.756;2022-12-18T05:00:14;16.83;;;9.07;;
35646;SDS011;28680;45.642;13.756;2022-12-18T05:02:42;17.00;;;8.52;;
35646;SDS011;28680;45.642;13.756;2022-12-18T05:05:08;16.60;;;8.80;;
35646;SDS011;28680;45.642;13.756;2022-12-18T05:07:34;15.88;;;8.05;;
35646;SDS011;28680;45.642;13.756;2022-12-18T05:10:00;17.02;;;8.55;;
35646;SDS011;28680;45.642;13.756;2022-12-18T05:12:26;16.77;;;9.18;;
35646;SDS011;28680;45.642;13.756;2022-12-18T05:14:52;15.05;;;8.00;;
35646;SDS011;28680;45.642;13.756;2022-12-18T05:17:18;17.45;;;9.02;;
35646;SDS011;28680;45.642;13.756;2022-12-18T05:19:44;16.48;;;8.80;;
35646;SDS011;28680;45.642;13.756;2022-12-18T05:22:10;18.35;;;8.45;;
35646;SDS011;28680;45.642;13.756;2022-12-18T05:24:36;17.25;;;8.80;;
35646;SDS011;28680;45.642;13.756;2022-12-18T05:27:02;15.02;;;8.40;;
35646;SDS011;28680;45.642;13.756;2022-12-18T05:29:28;17.42;;;9.38;;
35646;SDS011;28680;45.642;13.756;2022-12-18T05:31:54;17.13;;;8.57;;
35646;SDS011;28680;45.642;13.756;2022-12-18T05:34:20;17.67;;;9.55;;
35646;SDS011;28680;45.642;13.756;2022-12-18T05:36:46;17.15;;;9.13;;
35646;SDS011;28680;45.642;13.756;2022-12-18T05:39:13;18.75;;;9.93;;
35646;SDS011;28680;45.642;13.756;2022-12-18T05:41:39;17.02;;;8.93;;
35646;SDS011;28680;45.642;13.756;2022-12-18T05:44:05;17.00;;;8.82;;
35646;SDS011;28680;45.642;13.756;2022-12-18T05:46:30;17.20;;;9.13;;
35646;SDS011;28680;45.642;13.756;2022-12-18T05:48:59;19.83;;;9.73;;
35646;SDS011;28680;45.642;13.756;2022-12-18T05:51:26;19.40;;;9.45;;
35646;SDS011;28680;45.642;13.756;2022-12-18T05:53:52;17.42;;;9.43;;
35646;SDS011;28680;45.642;13.756;2022-12-18T05:56:19;18.58;;;8.98;;
35646;SDS011;28680;45.642;13.756;2022-12-18T05:58:46;18.77;;;9.00;;
35646;SDS011;28680;45.642;13.756;2022-12-18T06:01:17;18.02;;;9.45;;
35646;SDS011;28680;45.642;13.756;2022-12-18T06:03:46;17.98;;;9.48;;
35646;SDS011;28680;45.642;13.756;2022-12-18T06:06:19;18.98;;;9.63;;
35646;SDS011;28680;45.642;13.756;2022-12-18T06:08:51;19.20;;;10.30;;
35646;SDS011;28680;45.642;13.756;2022-12-18T06:11:25;17.60;;;9.10;;
35646;SDS011;28680;45.642;13.756;2022-12-18T06:13:52;17.63;;;9.37;;
35646;SDS011;28680;45.642;13.756;2022-12-18T06:16:20;20.52;;;10.45;;
35646;SDS011;28680;45.642;13.756;2022-12-18T06:18:45;19.10;;;9.98;;
35646;SDS011;28680;45.642;13.756;2022-12-18T06:21:11;17.60;;;8.93;;
35646;SDS011;28680;45.642;13.756;2022-12-18T06:23:37;18.92;;;10.02;;
35646;SDS011;28680;45.642;13.756;2022-12-18T06:26:07;18.08;;;9.48;;
35646;SDS011;28680;45.642;13.756;2022-12-18T06:28:35;15.98;;;9.05;;
35646;SDS011;28680;45.642;13.756;2022-12-18T06:31:02;18.92;;;10.02;;
35646;SDS011;28680;45.642;13.756;2022-12-18T06:33:29;18.13;;;9.02;;
35646;SDS011;28680;45.642;13.756;2022-12-18T06:36:06;22.30;;;10.65;;
35646;SDS011;28680;45.642;13.756;2022-12-18T06:38:37;18.42;;;9.77;;
35646;SDS011;28680;45.642;13.756;2022-12-18T06:41:10;18.65;;;10.63;;
35646;SDS011;28680;45.642;13.756;2022-12-18T06:43:41;19.70;;;9.68;;
35646;SDS011;28680;45.642;13.756;2022-12-18T06:46:08;20.40;;;9.93;;
35646;SDS011;28680;45.642;13.756;2022-12-18T06:48:35;21.88;;;10.85;;
35646;SDS011;28680;45.642;13.756;2022-12-18T06:51:01;21.95;;;10.65;;
35646;SDS011;28680;45.642;13.756;2022-12-18T06:53:29;20.77;;;10.88;;
35646;SDS011;28680;45.642;13.756;2022-12-18T06:55:59;20.38;;;10.75;;
35646;SDS011;28680;45.642;13.756;2022-12-18T06:58:31;22.08;;;11.52;;
35646;SDS011;28680;45.642;13.756;2022-12-18T07:01:00;21.88;;;11.25;;
35646;SDS011;28680;45.642;13.756;2022-12-18T07:03:31;23.77;;;11.50;;
35646;SDS011;28680;45.642;13.756;2022-12-18T07:05:57;23.27;;;11.80;;
35646;SDS011;28680;45.642;13.756;2022-12-18T07:08:23;24.67;;;11.75;;
35646;SDS011;28680;45.642;13.756;2022-12-18T07:10:49;24.25;;;11.43;;
35646;SDS011;28680;45.642;13.756;2022-12-18T07:13:15;20.77;;;11.15;;
35646;SDS011;28680;45.642;13.756;2022-12-18T07:15:42;25.40;;;12.07;;
35646;SDS011;28680;45.642;13.756;2022-12-18T07:18:08;23.63;;;11.60;;
35646;SDS011;28680;45.642;13.756;2022-12-18T07:20:35;24.00;;;11.07;;
35646;SDS011;28680;45.642;13.756;2022-12-18T07:23:03;20.20;;;10.65;;
35646;SDS011;28680;45.642;13.756;2022-12-18T07:25:30;21.48;;;10.80;;
35646;SDS011;28680;45.642;13.756;2022-12-18T07:28:02;19.88;;;10.43;;
35646;SDS011;28680;45.642;13.756;2022-12-18T07:30:29;20.67;;;9.77;;
35646;SDS011;28680;45.642;13.756;2022-12-18T07:32:54;18.88;;;9.75;;
35646;SDS011;28680;45.642;13.756;2022-12-18T07:35:20;18.48;;;10.10;;
35646;SDS011;28680;45.642;13.756;2022-12-18T07:37:46;18.80;;;9.57;;
35646;SDS011;28680;45.642;13.756;2022-12-18T07:40:12;18.40;;;9.57;;
35646;SDS011;28680;45.642;13.756;2022-12-18T07:42:38;18.05;;;9.52;;
35646;SDS011;28680;45.642;13.756;2022-12-18T07:45:04;17.40;;;8.40;;
35646;SDS011;28680;45.642;13.756;2022-12-18T07:47:30;16.05;;;8.02;;
35646;SDS011;28680;45.642;13.756;2022-12-18T07:50:01;17.58;;;8.50;;
35646;SDS011;28680;45.642;13.756;2022-12-18T07:52:29;16.77;;;8.90;;
35646;SDS011;28680;45.642;13.756;2022-12-18T07:54:54;15.82;;;7.68;;
35646;SDS011;28680;45.642;13.756;2022-12-18T07:57:20;14.13;;;7.18;;
35646;SDS011;28680;45.642;13.756;2022-12-18T07:59:46;15.73;;;7.28;;
35646;SDS011;28680;45.642;13.756;2022-12-18T08:02:12;13.80;;;7.47;;
35646;SDS011;28680;45.642;13.756;2022-12-18T08:04:38;13.32;;;6.97;;
35646;SDS011;28680;45.642;13.756;2022-12-18T08:07:04;14.98;;;7.53;;
35646;SDS011;28680;45.642;13.756;2022-12-18T08:09:29;11.68;;;6.75;;
35646;SDS011;28680;45.642;13.756;2022-12-18T08:11:55;13.65;;;7.40;;
35646;SDS011;28680;45.642;13.756;2022-12-18T08:14:21;12.15;;;6.43;;
35646;SDS011;28680;45.642;13.756;2022-12-18T08:16:47;13.68;;;7.30;;
35646;SDS011;28680;45.642;13.756;2022-12-18T08:19:13;13.15;;;6.55;;
35646;SDS011;28680;45.642;13.756;2022-12-18T08:21:39;15.43;;;7.60;;
35646;SDS011;28680;45.642;13.756;2022-12-18T08:24:05;13.23;;;6.85;;
35646;SDS011;28680;45.642;13.756;2022-12-18T08:26:31;11.20;;;6.35;;
35646;SDS011;28680;45.642;13.756;2022-12-18T08:28:58;13.23;;;7.25;;
35646;SDS011;28680;45.642;13.756;2022-12-18T08:31:25;11.43;;;6.43;;
35646;SDS011;28680;45.642;13.756;2022-12-18T08:33:53;11.40;;;6.43;;
35646;SDS011;28680;45.642;13.756;2022-12-18T08:36:20;10.70;;;6.65;;
35646;SDS011;28680;45.642;13.756;2022-12-18T08:38:46;14.05;;;6.80;;
35646;SDS011;28680;45.642;13.756;2022-12-18T08:41:13;12.63;;;6.55;;
35646;SDS011;28680;45.642;13.756;2022-12-18T08:43:41;11.57;;;6.10;;
35646;SDS011;28680;45.642;13.756;2022-12-18T08:46:26;12.05;;;6.60;;
35646;SDS011;28680;45.642;13.756;2022-12-18T08:48:58;10.70;;;6.35;;
35646;SDS011;28680;45.642;13.756;2022-12-18T08:51:24;11.50;;;6.57;;
35646;SDS011;28680;45.642;13.756;2022-12-18T08:53:49;11.73;;;6.93;;
35646;SDS011;28680;45.642;13.756;2022-12-18T08:56:15;11.23;;;6.95;;
35646;SDS011;28680;45.642;13.756;2022-12-18T08:58:41;13.30;;;7.00;;
35646;SDS011;28680;45.642;13.756;2022-12-18T09:01:08;12.95;;;6.63;;
35646;SDS011;28680;45.642;13.756;2022-12-18T09:03:37;11.70;;;6.97;;
35646;SDS011;28680;45.642;13.756;2022-12-18T09:06:04;12.38;;;6.70;;
35646;SDS011;28680;45.642;13.756;2022-12-18T09:08:30;10.25;;;6.22;;
35646;SDS011;28680;45.642;13.756;2022-12-18T09:11:01;11.82;;;6.68;;
35646;SDS011;28680;45.642;13.756;2022-12-18T09:13:28;12.45;;;7.03;;
35646;SDS011;28680;45.642;13.756;2022-12-18T09:15:54;13.88;;;7.28;;
35646;SDS011;28680;45.642;13.756;2022-12-18T09:18:23;12.63;;;7.00;;
35646;SDS011;28680;45.642;13.756;2022-12-18T09:20:52;10.75;;;6.38;;
35646;SDS011;28680;45.642;13.756;2022-12-18T09:23:18;11.48;;;6.82;;
35646;SDS011;28680;45.642;13.756;2022-12-18T09:25:44;13.15;;;7.40;;
35646;SDS011;28680;45.642;13.756;2022-12-18T09:28:14;11.75;;;6.68;;
35646;SDS011;28680;45.642;13.756;2022-12-18T09:30:45;12.57;;;6.97;;
35646;SDS011;28680;45.642;13.756;2022-12-18T09:33:15;11.65;;;7.10;;
35646;SDS011;28680;45.642;13.756;2022-12-18T09:35:42;13.00;;;6.97;;
35646;SDS011;28680;45.642;13.756;2022-12-18T09:38:11;13.65;;;7.78;;
35646;SDS011;28680;45.642;13.756;2022-12-18T09:40:50;11.23;;;6.43;;
35646;SDS011;28680;45.642;13.756;2022-12-18T09:43:20;12.80;;;7.45;;
35646;SDS011;28680;45.642;13.756;2022-12-18T09:46:19;12.27;;;7.05;;
35646;SDS011;28680;45.642;13.756;2022-12-18T09:48:54;12.60;;;7.22;;
35646;SDS011;28680;45.642;13.756;2022-12-18T09:51:39;12.88;;;7.40;;
35646;SDS011;28680;45.642;13.756;2022-12-18T09:54:36;11.43;;;7.00;;
35646;SDS011;28680;45.642;13.756;2022-12-18T09:57:12;11.70;;;7.05;;
35646;SDS011;28680;45.642;13.756;2022-12-18T09:59:42;14.50;;;8.40;;
35646;SDS011;28680;45.642;13.756;2022-12-18T10:02:16;14.95;;;8.80;;
35646;SDS011;28680;45.642;13.756;2022-12-18T10:10:53;12.88;;;7.80;;
35646;SDS011;28680;45.642;13.756;2022-12-18T10:13:42;12.27;;;7.53;;
35646;SDS011;28680;45.642;13.756;2022-12-18T10:16:19;13.13;;;7.30;;
35646;SDS011;28680;45.642;13.756;2022-12-18T10:19:01;12.98;;;7.72;;
35646;SDS011;28680;45.642;13.756;2022-12-18T10:24:42;11.90;;;7.15;;
35646;SDS011;28680;45.642;13.756;2022-12-18T10:27:24;12.55;;;6.82;;
35646;SDS011;28680;45.642;13.756;2022-12-18T10:29:52;12.60;;;5.82;;
35646;SDS011;28680;45.642;13.756;2022-12-18T10:32:29;12.20;;;6.97;;
35646;SDS011;28680;45.642;13.756;2022-12-18T10:34:58;10.70;;;6.28;;
35646;SDS011;28680;45.642;13.756;2022-12-18T10:37:25;9.98;;;6.45;;
35646;SDS011;28680;45.642;13.756;2022-12-18T10:43:12;13.70;;;7.85;;
35646;SDS011;28680;45.642;13.756;2022-12-18T10:45:40;12.10;;;7.53;;
35646;SDS011;28680;45.642;13.756;2022-12-18T10:48:22;12.60;;;7.05;;
35646;SDS011;28680;45.642;13.756;2022-12-18T10:50:50;14.10;;;8.05;;
35646;SDS011;28680;45.642;13.756;2022-12-18T10:53:21;12.23;;;6.70;;
35646;SDS011;28680;45.642;13.756;2022-12-18T10:55:52;11.88;;;7.00;;
35646;SDS011;28680;45.642;13.756;2022-12-18T10:58:22;13.75;;;7.20;;
35646;SDS011;28680;45.642;13.756;2022-12-18T11:01:14;17.98;;;10.85;;
35646;SDS011;28680;45.642;13.756;2022-12-18T11:06:14;13.10;;;7.82;;
35646;SDS011;28680;45.642;13.756;2022-12-18T11:09:00;13.98;;;8.07;;
35646;SDS011;28680;45.642;13.756;2022-12-18T11:11:32;13.02;;;7.75;;
35646;SDS011;28680;45.642;13.756;2022-12-18T11:13:59;12.07;;;7.28;;
35646;SDS011;28680;45.642;13.756;2022-12-18T11:16:51;15.30;;;8.65;;
35646;SDS011;28680;45.642;13.756;2022-12-18T11:21:56;16.38;;;9.45;;
35646;SDS011;28680;45.642;13.756;2022-12-18T11:24:26;14.75;;;8.43;;
35646;SDS011;28680;45.642;13.756;2022-12-18T11:26:55;13.35;;;8.65;;
35646;SDS011;28680;45.642;13.756;2022-12-18T11:29:43;15.15;;;8.73;;
35646;SDS011;28680;45.642;13.756;2022-12-18T11:32:21;13.75;;;8.50;;
35646;SDS011;28680;45.642;13.756;2022-12-18T11:37:41;15.30;;;8.80;;
35646;SDS011;28680;45.642;13.756;2022-12-18T11:40:20;15.70;;;8.68;;
35646;SDS011;28680;45.642;13.756;2022-12-18T11:43:06;14.30;;;7.93;;
35646;SDS011;28680;45.642;13.756;2022-12-18T11:52:59;11.60;;;7.30;;
35646;SDS011;28680;45.642;13.756;2022-12-18T11:58:47;12.30;;;7.35;;
35646;SDS011;28680;45.642;13.756;2022-12-18T12:25:28;9.98;;;6.63;;
35646;SDS011;28680;45.642;13.756;2022-12-18T12:28:32;11.73;;;6.88;;
35646;SDS011;28680;45.642;13.756;2022-12-18T12:39:59;21.83;;;9.23;;
35646;SDS011;28680;45.642;13.756;2022-12-18T12:42:41;10.20;;;6.55;;
35646;SDS011;28680;45.642;13.756;2022-12-18T12:53:52;11.50;;;6.47;;
35646;SDS011;28680;45.642;13.756;2022-12-18T12:56:22;9.93;;;6.60;;
35646;SDS011;28680;45.642;13.756;2022-12-18T12:59:04;9.68;;;6.65;;
35646;SDS011;28680;45.642;13.756;2022-12-18T13:07:59;12.40;;;6.53;;
35646;SDS011;28680;45.642;13.756;2022-12-18T13:10:39;8.90;;;5.80;;
35646;SDS011;28680;45.642;13.756;2022-12-18T13:13:08;9.68;;;6.55;;
35646;SDS011;28680;45.642;13.756;2022-12-18T13:21:32;10.25;;;6.88;;
35646;SDS011;28680;45.642;13.756;2022-12-18T13:24:14;10.15;;;6.43;;
35646;SDS011;28680;45.642;13.756;2022-12-18T13:26:59;15.52;;;7.15;;
35646;SDS011;28680;45.642;13.756;2022-12-18T13:29:46;12.23;;;7.63;;
35646;SDS011;28680;45.642;13.756;2022-12-18T13:32:19;10.15;;;6.55;;
35646;SDS011;28680;45.642;13.756;2022-12-18T13:37:51;11.80;;;6.85;;
35646;SDS011;28680;45.642;13.756;2022-12-18T13:46:03;15.65;;;7.28;;
35646;SDS011;28680;45.642;13.756;2022-12-18T13:48:32;12.77;;;7.63;;
35646;SDS011;28680;45.642;13.756;2022-12-18T13:51:04;13.48;;;8.32;;
35646;SDS011;28680;45.642;13.756;2022-12-18T13:53:35;12.02;;;7.30;;
35646;SDS011;28680;45.642;13.756;2022-12-18T13:56:09;13.73;;;7.95;;
35646;SDS011;28680;45.642;13.756;2022-12-18T13:58:40;11.63;;;8.02;;
35646;SDS011;28680;45.642;13.756;2022-12-18T14:01:20;12.43;;;8.00;;
35646;SDS011;28680;45.642;13.756;2022-12-18T14:03:48;11.20;;;7.38;;
35646;SDS011;28680;45.642;13.756;2022-12-18T14:06:15;11.98;;;7.32;;
35646;SDS011;28680;45.642;13.756;2022-12-18T14:08:42;13.05;;;7.28;;
35646;SDS011;28680;45.642;13.756;2022-12-18T14:11:17;11.13;;;7.05;;
35646;SDS011;28680;45.642;13.756;2022-12-18T14:13:48;14.30;;;7.63;;
35646;SDS011;28680;45.642;13.756;2022-12-18T14:16:15;11.07;;;7.10;;
35646;SDS011;28680;45.642;13.756;2022-12-18T14:21:22;12.65;;;7.30;;
35646;SDS011;28680;45.642;13.756;2022-12-18T14:26:53;12.90;;;7.45;;
35646;SDS011;28680;45.642;13.756;2022-12-18T14:29:23;11.30;;;7.00;;
35646;SDS011;28680;45.642;13.756;2022-12-18T14:32:05;13.82;;;8.52;;
35646;SDS011;28680;45.642;13.756;2022-12-18T14:34:41;12.32;;;7.25;;
35646;SDS011;28680;45.642;13.756;2022-12-18T14:37:25;13.48;;;8.18;;
35646;SDS011;28680;45.642;13.756;2022-12-18T14:39:53;12.63;;;6.90;;
35646;SDS011;28680;45.642;13.756;2022-12-18T14:42:24;13.38;;;7.35;;
35646;SDS011;28680;45.642;13.756;2022-12-18T14:45:39;13.07;;;8.15;;
35646;SDS011;28680;45.642;13.756;2022-12-18T14:47:58;14.63;;;7.53;;
35646;SDS011;28680;45.642;13.756;2022-12-18T14:50:25;12.80;;;7.88;;
35646;SDS011;28680;45.642;13.756;2022-12-18T14:52:51;12.45;;;8.00;;
35646;SDS011;28680;45.642;13.756;2022-12-18T14:55:18;13.50;;;7.82;;
35646;SDS011;28680;45.642;13.756;2022-12-18T14:57:48;13.80;;;8.02;;
35646;SDS011;28680;45.642;13.756;2022-12-18T15:00:18;12.30;;;7.70;;
35646;SDS011;28680;45.642;13.756;2022-12-18T15:02:56;14.73;;;8.55;;
35646;SDS011;28680;45.642;13.756;2022-12-18T15:05:27;12.35;;;7.40;;
35646;SDS011;28680;45.642;13.756;2022-12-18T15:07:57;14.93;;;8.18;;
35646;SDS011;28680;45.642;13.756;2022-12-18T15:10:26;15.23;;;7.82;;
35646;SDS011;28680;45.642;13.756;2022-12-18T15:15:46;13.23;;;8.18;;
35646;SDS011;28680;45.642;13.756;2022-12-18T15:18:14;15.48;;;8.13;;
35646;SDS011;28680;45.642;13.756;2022-12-18T15:20:58;15.60;;;8.93;;
35646;SDS011;28680;45.642;13.756;2022-12-18T15:24:13;15.75;;;8.50;;
35646;SDS011;28680;45.642;13.756;2022-12-18T15:26:25;16.63;;;8.57;;
35646;SDS011;28680;45.642;13.756;2022-12-18T15:29:02;14.95;;;8.73;;
35646;SDS011;28680;45.642;13.756;2022-12-18T15:34:08;16.58;;;8.93;;
35646;SDS011;28680;45.642;13.756;2022-12-18T15:36:45;15.23;;;8.68;;
35646;SDS011;28680;45.642;13.756;2022-12-18T15:39:12;17.92;;;8.43;;
35646;SDS011;28680;45.642;13.756;2022-12-18T15:41:38;15.50;;;8.77;;
35646;SDS011;28680;45.642;13.756;2022-12-18T15:44:23;15.60;;;8.68;;
35646;SDS011;28680;45.642;13.756;2022-12-18T15:46:50;14.02;;;8.13;;
35646;SDS011;28680;45.642;13.756;2022-12-18T15:49:16;13.52;;;8.20;;
35646;SDS011;28680;45.642;13.756;2022-12-18T15:51:42;16.10;;;8.98;;
35646;SDS011;28680;45.642;13.756;2022-12-18T15:54:11;14.32;;;8.95;;
35646;SDS011;28680;45.642;13.756;2022-12-18T15:56:41;14.55;;;8.20;;
35646;SDS011;28680;45.642;13.756;2022-12-18T15:59:26;15.07;;;8.38;;
35646;SDS011;28680;45.642;13.756;2022-12-18T16:01:52;17.55;;;8.82;;
35646;SDS011;28680;45.642;13.756;2022-12-18T16:04:19;16.83;;;8.10;;
35646;SDS011;28680;45.642;13.756;2022-12-18T16:06:46;16.85;;;8.73;;
35646;SDS011;28680;45.642;13.756;2022-12-18T16:09:13;17.48;;;9.95;;
35646;SDS011;28680;45.642;13.756;2022-12-18T16:11:39;18.05;;;8.63;;
35646;SDS011;28680;45.642;13.756;2022-12-18T16:16:46;15.55;;;8.35;;
35646;SDS011;28680;45.642;13.756;2022-12-18T16:19:18;14.48;;;8.50;;
35646;SDS011;28680;45.642;13.756;2022-12-18T16:21:45;15.48;;;8.20;;
35646;SDS011;28680;45.642;13.756;2022-12-18T16:24:14;16.88;;;8.88;;
35646;SDS011;28680;45.642;13.756;2022-12-18T16:26:43;14.45;;;8.10;;
35646;SDS011;28680;45.642;13.756;2022-12-18T16:29:09;14.65;;;8.68;;
35646;SDS011;28680;45.642;13.756;2022-12-18T16:31:36;14.02;;;8.45;;
35646;SDS011;28680;45.642;13.756;2022-12-18T16:37:03;15.82;;;8.93;;
35646;SDS011;28680;45.642;13.756;2022-12-18T16:39:31;16.50;;;8.50;;
35646;SDS011;28680;45.642;13.756;2022-12-18T16:42:06;15.57;;;7.80;;
35646;SDS011;28680;45.642;13.756;2022-12-18T16:44:42;14.57;;;7.72;;
35646;SDS011;28680;45.642;13.756;2022-12-18T16:47:09;15.88;;;8.30;;
35646;SDS011;28680;45.642;13.756;2022-12-18T16:49:35;13.95;;;7.65;;
35646;SDS011;28680;45.642;13.756;2022-12-18T16:52:01;14.43;;;7.78;;
35646;SDS011;28680;45.642;13.756;2022-12-18T16:54:29;13.68;;;7.90;;
35646;SDS011;28680;45.642;13.756;2022-12-18T16:56:55;14.93;;;7.93;;
35646;SDS011;28680;45.642;13.756;2022-12-18T16:59:21;15.32;;;7.45;;
35646;SDS011;28680;45.642;13.756;2022-12-18T17:01:47;14.23;;;7.80;;
35646;SDS011;28680;45.642;13.756;2022-12-18T17:04:13;16.10;;;7.85;;
35646;SDS011;28680;45.642;13.756;2022-12-18T17:06:42;13.95;;;8.13;;
35646;SDS011;28680;45.642;13.756;2022-12-18T17:09:12;15.80;;;8.10;;